Time;durP1;ratioP1;P1;durP2;ratioP2;P2;SDS_P1;SDS_P2;PMS_P1;PMS_P2;Temp;Humidity;BMP_temperature;BMP_pressure;BME280_temperature;BME280_humidity;BME280_pressure;Samples;Min_cycle;Max_cycle;Signal;HPM_P1;HPM_P2
2024/01/10 00:00:34;;;;;;;5.80;4.50;;;;;;;12.39;47.01;99456.58;105716;1254;65936;-41
2024/01/10 00:03:01;;;;;;;5.70;4.50;;;;;;;12.39;46.94;99455.88;105499;1253;72297;-41
2024/01/10 00:05:28;;;;;;;5.90;4.60;;;;;;;12.39;46.85;99457.10;105491;1256;61369;-40
2024/01/10 00:07:54;;;;;;;5.80;4.50;;;;;;;12.39;47.00;99455.02;105617;1254;61242;-41
2024/01/10 00:10:24;;;;;;;5.00;4.10;;;;;;;12.39;46.88;99454.20;105620;1253;74481;-42
2024/01/10 00:12:50;;;;;;;5.00;4.50;;;;;;;12.38;46.80;99458.34;105894;1256;65977;-40
2024/01/10 00:15:17;;;;;;;5.40;4.70;;;;;;;12.38;46.85;99453.29;105880;1253;71429;-40
2024/01/10 00:17:43;;;;;;;4.60;4.10;;;;;;;12.38;46.98;99451.73;105574;1256;61257;-40
2024/01/10 00:20:10;;;;;;;4.80;4.30;;;;;;;12.37;46.94;99446.23;105682;1253;61363;-40
2024/01/10 00:22:37;;;;;;;5.60;4.70;;;;;;;12.37;46.97;99450.91;105830;1253;74359;-42
2024/01/10 00:25:04;;;;;;;6.10;4.40;;;;;;;12.37;46.81;99449.52;105853;1256;66156;-42
2024/01/10 00:27:31;;;;;;;5.40;4.60;;;;;;;12.37;46.86;99448.60;105904;1252;73084;-40
2024/01/10 00:29:57;;;;;;;5.60;4.40;;;;;;;12.36;46.81;99443.50;105918;1254;63093;-40
2024/01/10 00:32:24;;;;;;;5.50;4.80;;;;;;;12.36;46.89;99448.92;105745;1255;61260;-40
2024/01/10 00:34:51;;;;;;;5.90;4.70;;;;;;;12.35;46.80;99448.30;105677;1256;73572;-39
2024/01/10 00:37:17;;;;;;;6.00;4.60;;;;;;;12.35;46.85;99442.23;105742;1256;66297;-42
2024/01/10 00:39:44;;;;;;;5.50;4.30;;;;;;;12.35;46.89;99441.20;105748;1251;72635;-42
2024/01/10 00:42:10;;;;;;;5.40;4.70;;;;;;;12.35;46.85;99438.14;105969;1254;61343;-41
2024/01/10 00:44:37;;;;;;;4.50;4.10;;;;;;;12.35;46.84;99431.15;105945;1252;61256;-40
2024/01/10 00:47:03;;;;;;;5.10;4.40;;;;;;;12.34;46.80;99426.09;105966;1257;73420;-41
2024/01/10 00:49:30;;;;;;;5.40;4.80;;;;;;;12.34;46.90;99425.71;105889;1258;65873;-41
2024/01/10 00:51:57;;;;;;;5.30;4.40;;;;;;;12.34;46.84;99429.48;105622;1251;72534;-40
2024/01/10 00:54:23;;;;;;;5.80;4.60;;;;;;;12.34;46.85;99430.60;105641;1257;61228;-41
2024/01/10 00:56:50;;;;;;;5.30;4.70;;;;;;;12.34;46.84;99432.29;105884;1251;61239;-39
2024/01/10 00:59:17;;;;;;;4.80;4.40;;;;;;;12.34;46.86;99432.44;105962;1254;74268;-39
2024/01/10 01:01:44;;;;;;;5.10;4.30;;;;;;;12.34;46.90;99433.73;106206;1256;65907;-42
2024/01/10 01:04:11;;;;;;;5.90;4.50;;;;;;;12.34;46.87;99431.91;105814;1253;72411;-41
2024/01/10 01:06:37;;;;;;;5.20;4.70;;;;;;;12.34;46.86;99428.30;106309;1255;61460;-42
2024/01/10 01:09:04;;;;;;;4.80;4.30;;;;;;;12.33;46.83;99431.04;105802;1251;61224;-41
2024/01/10 01:11:30;;;;;;;5.50;4.20;;;;;;;12.34;46.79;99424.23;105911;1255;75596;-41
2024/01/10 01:13:57;;;;;;;4.80;4.30;;;;;;;12.34;46.90;99427.44;106032;1251;66332;-41
2024/01/10 01:16:24;;;;;;;4.50;4.10;;;;;;;12.34;46.81;99422.06;105780;1251;158225;-40
2024/01/10 01:18:50;;;;;;;6.10;4.80;;;;;;;12.33;46.84;99423.04;105973;1256;61234;-40
2024/01/10 01:21:17;;;;;;;5.50;4.30;;;;;;;12.33;46.80;99423.79;105897;1251;61252;-40
2024/01/10 01:23:44;;;;;;;5.00;4.50;;;;;;;12.33;46.86;99423.09;106027;1257;74548;-40
2024/01/10 01:26:12;;;;;;;6.70;4.20;;;;;;;12.33;46.73;99420.06;105879;1255;64975;-41
2024/01/10 01:28:39;;;;;;;4.90;4.00;;;;;;;12.33;46.73;99418.04;105887;1255;72576;-40
2024/01/10 01:31:06;;;;;;;6.80;4.60;;;;;;;12.33;46.79;99416.69;105672;1256;61371;-41
2024/01/10 01:33:33;;;;;;;4.70;4.20;;;;;;;12.32;46.71;99416.20;105772;1253;61341;-40
2024/01/10 01:36:00;;;;;;;6.40;4.80;;;;;;;12.32;46.90;99417.27;105649;1256;74399;-42
2024/01/10 01:38:27;;;;;;;4.90;4.40;;;;;;;12.32;46.74;99415.94;105632;1256;64163;-41
2024/01/10 01:40:54;;;;;;;5.10;4.40;;;;;;;12.32;46.69;99414.86;105836;1254;72697;-40
2024/01/10 01:43:24;;;;;;;5.00;4.40;;;;;;;12.32;46.76;99411.42;105884;1256;61465;-41
2024/01/10 01:45:53;;;;;;;4.90;4.20;;;;;;;12.32;46.88;99410.92;105657;1253;61338;-41
2024/01/10 01:48:20;;;;;;;5.10;4.40;;;;;;;12.31;46.69;99409.08;105731;1253;74482;-40
2024/01/10 01:50:48;;;;;;;5.30;4.50;;;;;;;12.31;46.65;99408.54;105811;1256;66107;-40
2024/01/10 01:53:15;;;;;;;5.70;4.90;;;;;;;12.32;46.67;99401.09;105662;1253;72478;-42
2024/01/10 01:55:42;;;;;;;5.40;4.60;;;;;;;12.31;46.79;99399.83;105627;1257;61232;-41
2024/01/10 01:58:09;;;;;;;5.70;4.70;;;;;;;12.31;46.78;99396.11;105536;1252;61304;-42
2024/01/10 02:00:35;;;;;;;5.80;4.60;;;;;;;12.31;46.73;99396.06;105830;1256;74385;-40
2024/01/10 02:03:02;;;;;;;5.20;4.30;;;;;;;12.30;46.67;99392.73;105880;1256;66275;-40
2024/01/10 02:05:29;;;;;;;5.10;4.40;;;;;;;12.30;46.84;99396.48;105454;1253;72408;-41
2024/01/10 02:07:56;;;;;;;5.00;4.40;;;;;;;12.30;46.74;99395.09;105686;1256;61221;-41
2024/01/10 02:10:23;;;;;;;5.00;4.40;;;;;;;12.30;46.73;99390.58;105894;1253;61263;-41
2024/01/10 02:12:49;;;;;;;5.80;4.40;;;;;;;12.30;46.66;99385.63;105920;1253;74970;-41
2024/01/10 02:15:16;;;;;;;7.20;4.60;;;;;;;12.30;46.66;99387.61;105697;1256;64886;-40
2024/01/10 02:17:43;;;;;;;5.10;4.30;;;;;;;12.29;46.75;99380.52;105729;1253;71491;-40
2024/01/10 02:20:16;;;;;;;5.10;4.40;;;;;;;12.29;46.60;99380.52;105827;1256;61330;-40
2024/01/10 02:22:43;;;;;;;6.10;4.20;;;;;;;12.30;46.64;99376.02;105568;1255;61235;-41
2024/01/10 02:25:10;;;;;;;5.30;4.80;;;;;;;12.29;46.62;99370.53;105933;1256;74650;-40
2024/01/10 02:27:37;;;;;;;5.40;4.70;;;;;;;12.29;46.65;99368.33;105896;1256;65613;-40
2024/01/10 02:30:05;;;;;;;5.90;4.50;;;;;;;12.29;46.61;99361.13;105908;1253;72670;-39
2024/01/10 02:32:32;;;;;;;7.40;4.50;;;;;;;12.28;46.50;99351.20;105724;1256;61353;-39
2024/01/10 02:34:59;;;;;;;5.30;4.70;;;;;;;12.29;46.62;99347.15;105590;1253;61439;-42
2024/01/10 02:37:26;;;;;;;6.10;4.70;;;;;;;12.28;46.60;99348.55;105911;1256;74377;-42
2024/01/10 02:39:52;;;;;;;5.70;4.70;;;;;;;12.28;46.64;99346.13;105871;1256;66280;-41
2024/01/10 02:42:19;;;;;;;5.40;4.70;;;;;;;12.28;46.59;99346.99;105809;1253;72409;-41
2024/01/10 02:44:45;;;;;;;6.00;4.80;;;;;;;12.27;46.70;99345.05;105724;1259;61830;-41
2024/01/10 02:47:12;;;;;;;5.90;4.80;;;;;;;12.27;46.50;99334.58;105770;1253;61264;-41
2024/01/10 02:49:39;;;;;;;5.10;4.50;;;;;;;12.28;46.70;99336.67;105548;1256;74604;-41
2024/01/10 02:52:05;;;;;;;5.70;4.30;;;;;;;12.27;46.67;99335.87;105585;1256;67163;-41
2024/01/10 02:54:32;;;;;;;6.60;4.50;;;;;;;12.26;46.63;99328.46;105724;1253;72484;-41
2024/01/10 02:56:59;;;;;;;6.00;4.70;;;;;;;12.26;46.58;99330.50;105684;1259;61431;-41
2024/01/10 02:59:25;;;;;;;5.10;4.50;;;;;;;12.26;46.66;99326.84;105685;1253;61196;-41
2024/01/10 03:01:52;;;;;;;6.40;4.70;;;;;;;12.26;46.71;99328.56;105989;1256;74325;-40
2024/01/10 03:04:18;;;;;;;5.50;4.50;;;;;;;12.25;46.52;99325.19;105569;1253;61288;-41
2024/01/10 03:06:45;;;;;;;4.50;4.10;;;;;;;12.25;46.74;99320.73;106061;1256;61369;-40
2024/01/10 03:09:12;;;;;;;5.00;4.50;;;;;;;12.25;46.54;99320.56;105981;1255;61260;-40
2024/01/10 03:11:38;;;;;;;5.70;4.70;;;;;;;12.25;46.58;99320.56;105906;1251;61328;-40
2024/01/10 03:14:09;;;;;;;5.60;4.60;;;;;;;12.25;46.63;99316.80;106049;1254;74609;-40
2024/01/10 03:16:36;;;;;;;6.10;5.00;;;;;;;12.25;46.60;99307.02;105951;1256;66530;-39
2024/01/10 03:19:03;;;;;;;5.10;4.40;;;;;;;12.25;46.55;99298.38;105954;1254;72473;-39
2024/01/10 03:21:30;;;;;;;5.20;4.30;;;;;;;12.25;46.62;99298.52;105847;1256;61241;-39
2024/01/10 03:23:57;;;;;;;5.20;4.50;;;;;;;12.25;46.64;99291.60;105625;1256;61234;-39
2024/01/10 03:26:24;;;;;;;5.80;4.70;;;;;;;12.24;46.63;99285.27;105893;1251;74358;-41
2024/01/10 03:28:51;;;;;;;5.40;4.10;;;;;;;12.24;46.54;99284.36;105737;1255;65924;-39
2024/01/10 03:31:18;;;;;;;6.00;4.40;;;;;;;12.24;46.57;99286.14;105741;1254;72316;-43
2024/01/10 03:33:44;;;;;;;5.40;4.90;;;;;;;12.24;46.60;99283.92;105653;1256;61231;-41
2024/01/10 03:36:20;;;;;;;7.00;4.10;;;;;;;12.23;46.52;99279.04;105901;1253;61366;-41
2024/01/10 03:38:47;;;;;;;5.50;4.50;;;;;;;12.24;46.57;99280.17;105943;1251;75012;-41
2024/01/10 03:41:14;;;;;;;5.80;4.60;;;;;;;12.23;46.66;99280.00;105825;1255;65839;-40
2024/01/10 03:43:41;;;;;;;5.70;4.40;;;;;;;12.23;46.70;99278.77;105640;1251;72693;-40
2024/01/10 03:46:09;;;;;;;6.20;4.20;;;;;;;12.22;46.51;99279.35;105606;1255;61234;-42
2024/01/10 03:48:36;;;;;;;5.30;4.50;;;;;;;12.22;46.52;99277.04;105754;1253;61247;-41
2024/01/10 03:51:03;;;;;;;6.10;4.90;;;;;;;12.22;46.61;99280.17;105634;1256;74584;-42
2024/01/10 03:53:30;;;;;;;5.50;4.30;;;;;;;12.22;46.73;99280.70;105778;1256;65536;-40
2024/01/10 03:55:57;;;;;;;6.20;4.40;;;;;;;12.22;46.62;99279.09;105828;1253;72460;-41
2024/01/10 03:58:24;;;;;;;4.80;4.30;;;;;;;12.22;46.60;99274.63;105859;1256;61251;-39
2024/01/10 04:00:50;;;;;;;5.50;4.50;;;;;;;12.21;46.70;99277.37;105839;1253;61235;-40
2024/01/10 04:03:18;;;;;;;6.70;4.50;;;;;;;12.21;46.66;99279.20;105777;1251;74570;-41
2024/01/10 04:05:44;;;;;;;5.80;4.50;;;;;;;12.22;46.60;99282.05;105715;1256;65880;-40
2024/01/10 04:08:11;;;;;;;5.50;4.20;;;;;;;12.22;46.53;99278.29;105862;1252;72495;-42
2024/01/10 04:10:38;;;;;;;4.80;4.30;;;;;;;12.21;46.50;99273.45;105804;1255;61324;-43
2024/01/10 04:13:05;;;;;;;5.80;4.50;;;;;;;12.21;46.68;99270.66;105881;1256;61417;-42
2024/01/10 04:15:31;;;;;;;5.00;4.40;;;;;;;12.21;46.42;99269.53;105921;1256;74459;-40
2024/01/10 04:17:58;;;;;;;4.30;3.90;;;;;;;12.21;46.62;99268.66;105920;1256;65976;-40
2024/01/10 04:20:25;;;;;;;7.20;4.60;;;;;;;12.21;46.55;99266.67;105790;1253;72396;-41
2024/01/10 04:22:51;;;;;;;6.90;4.50;;;;;;;12.21;46.58;99267.75;105761;1255;61334;-40
2024/01/10 04:25:18;;;;;;;4.80;4.20;;;;;;;12.20;46.56;99264.37;105941;1254;63838;-40
2024/01/10 04:27:45;;;;;;;5.90;4.70;;;;;;;12.20;46.47;99259.43;105900;1256;74386;-39
2024/01/10 04:30:12;;;;;;;6.10;4.20;;;;;;;12.20;46.61;99255.13;105701;1256;65801;-41
2024/01/10 04:32:39;;;;;;;5.10;4.50;;;;;;;12.19;46.60;99258.78;105826;1255;72561;-40
2024/01/10 04:35:06;;;;;;;5.90;4.50;;;;;;;12.19;46.59;99257.02;105734;1255;61340;-41
2024/01/10 04:37:33;;;;;;;5.10;4.60;;;;;;;12.19;46.61;99258.89;105801;1251;61267;-39
2024/01/10 04:40:00;;;;;;;4.80;4.30;;;;;;;12.19;46.68;99252.02;105911;1256;74915;-42
2024/01/10 04:42:26;;;;;;;6.30;4.60;;;;;;;12.19;46.61;99252.02;105899;1256;66049;-40
2024/01/10 04:44:53;;;;;;;6.00;4.00;;;;;;;12.19;46.65;99249.71;105782;1253;72518;-41
2024/01/10 04:47:20;;;;;;;5.00;4.50;;;;;;;12.19;46.60;99248.09;105758;1255;61246;-40
2024/01/10 04:49:47;;;;;;;6.70;4.60;;;;;;;12.19;46.60;99248.64;105599;1254;61346;-40
2024/01/10 04:52:13;;;;;;;5.80;4.80;;;;;;;12.18;46.55;99246.42;105832;1256;74381;-40
2024/01/10 04:54:40;;;;;;;4.90;4.10;;;;;;;12.18;46.60;99237.08;105957;1256;65866;-40
2024/01/10 04:57:07;;;;;;;6.60;4.40;;;;;;;12.19;46.39;99237.02;105955;1251;61304;-40
2024/01/10 04:59:34;;;;;;;5.20;4.30;;;;;;;12.18;46.49;99239.13;105834;1255;61221;-40
2024/01/10 05:02:00;;;;;;;5.00;4.40;;;;;;;12.18;46.54;99237.94;105786;1251;61250;-40
2024/01/10 05:04:27;;;;;;;5.00;4.20;;;;;;;12.18;46.56;99237.02;105679;1256;74586;-42
2024/01/10 05:06:53;;;;;;;5.40;4.80;;;;;;;12.17;46.49;99239.06;105859;1254;61149;-42
2024/01/10 05:09:20;;;;;;;5.00;4.40;;;;;;;12.17;46.52;99237.46;105892;1254;72496;-40
2024/01/10 05:11:48;;;;;;;5.10;4.20;;;;;;;12.17;46.46;99235.36;105845;1255;61333;-40
2024/01/10 05:14:15;;;;;;;5.00;4.30;;;;;;;12.17;46.43;99235.31;105684;1257;61343;-41
2024/01/10 05:16:41;;;;;;;6.40;4.50;;;;;;;12.17;46.59;99240.05;106328;1254;74628;-41
2024/01/10 05:19:09;;;;;;;6.10;4.30;;;;;;;12.17;46.46;99242.90;105704;1256;64973;-40
2024/01/10 05:21:35;;;;;;;4.90;4.40;;;;;;;12.17;46.62;99241.66;105751;1254;72593;-40
2024/01/10 05:24:03;;;;;;;5.30;4.30;;;;;;;12.17;46.55;99241.55;105624;1256;61222;-40
2024/01/10 05:26:30;;;;;;;5.10;4.00;;;;;;;12.16;46.42;99240.15;105747;1256;61303;-40
2024/01/10 05:28:56;;;;;;;6.00;4.30;;;;;;;12.17;46.57;99240.27;105902;1256;73571;-40
2024/01/10 05:31:23;;;;;;;5.00;4.40;;;;;;;12.16;46.51;99234.77;105715;1256;66217;-41
2024/01/10 05:33:50;;;;;;;5.70;4.40;;;;;;;12.16;46.49;99234.13;105803;1256;72396;-40
2024/01/10 05:36:16;;;;;;;5.40;4.50;;;;;;;12.16;46.51;99231.88;105770;1256;61357;-40
2024/01/10 05:38:43;;;;;;;5.90;4.70;;;;;;;12.16;46.61;99234.18;105745;1254;61254;-40
2024/01/10 05:41:10;;;;;;;4.60;4.10;;;;;;;12.16;46.53;99233.48;105928;1255;74551;-40
2024/01/10 05:43:37;;;;;;;5.60;4.10;;;;;;;12.16;46.40;99236.39;105893;1258;66271;-41
2024/01/10 05:46:04;;;;;;;6.20;4.40;;;;;;;12.16;46.63;99240.41;105792;1254;72581;-41
2024/01/10 05:48:32;;;;;;;4.70;4.00;;;;;;;12.15;46.55;99239.27;105732;1257;61228;-40
2024/01/10 05:50:59;;;;;;;5.00;4.40;;;;;;;12.16;46.55;99241.16;105623;1254;61322;-42
2024/01/10 05:53:25;;;;;;;4.50;4.00;;;;;;;12.15;46.46;99240.04;105830;1256;74514;-41
2024/01/10 05:55:52;;;;;;;4.80;4.20;;;;;;;12.15;46.57;99241.33;105729;1256;64955;-40
2024/01/10 05:58:20;;;;;;;7.10;4.50;;;;;;;12.14;46.56;99238.15;105712;1253;72570;-41
2024/01/10 06:00:47;;;;;;;5.90;4.50;;;;;;;12.15;46.63;99233.71;105767;1256;61815;-41
2024/01/10 06:03:14;;;;;;;5.00;4.50;;;;;;;12.14;46.38;99231.17;105848;1253;61336;-40
2024/01/10 06:05:40;;;;;;;6.20;4.70;;;;;;;12.14;46.57;99228.87;105857;1256;74427;-41
2024/01/10 06:08:07;;;;;;;4.90;4.30;;;;;;;12.14;46.51;99223.55;105868;1256;65536;-40
2024/01/10 06:10:34;;;;;;;5.70;4.60;;;;;;;12.14;46.47;99218.88;105666;1254;71658;-41
2024/01/10 06:13:04;;;;;;;5.60;4.60;;;;;;;12.14;46.61;99218.55;105649;1256;61259;-40
2024/01/10 06:15:31;;;;;;;5.80;4.30;;;;;;;12.14;46.51;99218.61;105764;1254;61226;-41
2024/01/10 06:17:58;;;;;;;6.30;4.60;;;;;;;12.13;46.47;99217.74;105815;1252;74273;-40
2024/01/10 06:20:25;;;;;;;5.80;4.60;;;;;;;12.14;46.56;99213.45;105936;1256;65961;-40
2024/01/10 06:22:51;;;;;;;4.70;4.00;;;;;;;12.13;46.49;99214.20;105757;1254;73012;-40
2024/01/10 06:25:18;;;;;;;5.70;4.50;;;;;;;12.13;46.45;99211.40;105905;1256;61244;-39
2024/01/10 06:27:45;;;;;;;5.10;4.60;;;;;;;12.13;46.52;99211.95;105887;1253;61225;-41
2024/01/10 06:30:12;;;;;;;5.60;4.10;;;;;;;12.13;46.46;99210.49;105710;1255;74474;-41
2024/01/10 06:32:39;;;;;;;6.00;4.30;;;;;;;12.13;46.45;99208.56;105903;1256;65297;-38
2024/01/10 06:35:08;;;;;;;5.10;4.30;;;;;;;12.14;46.50;99208.83;105753;1255;72326;-40
2024/01/10 06:37:36;;;;;;;7.70;4.40;;;;;;;12.13;46.47;99211.34;105775;1256;61240;-43
2024/01/10 06:40:05;;;;;;;5.70;4.70;;;;;;;12.13;46.43;99213.93;105768;1256;61345;-42
2024/01/10 06:42:32;;;;;;;6.20;4.40;;;;;;;12.13;46.51;99213.50;105740;1255;73548;-41
2024/01/10 06:44:59;;;;;;;4.30;3.90;;;;;;;12.13;46.46;99220.48;105820;1255;66979;-39
2024/01/10 06:47:25;;;;;;;5.80;4.50;;;;;;;12.13;46.50;99221.55;108812;1253;73026;-42
2024/01/10 06:49:52;;;;;;;4.50;4.00;;;;;;;12.14;46.48;99217.91;105553;1257;61233;-40
2024/01/10 06:52:19;;;;;;;5.10;4.50;;;;;;;12.14;46.54;99217.96;105852;1257;61228;-40
2024/01/10 06:54:45;;;;;;;4.40;4.00;;;;;;;12.15;46.40;99219.45;105508;1256;74572;-40
2024/01/10 06:57:12;;;;;;;4.90;4.40;;;;;;;12.15;46.50;99218.33;105661;1256;66077;-42
2024/01/10 06:59:38;;;;;;;5.10;4.10;;;;;;;12.15;46.46;99214.95;105721;1251;72556;-40
2024/01/10 07:02:05;;;;;;;6.40;4.30;;;;;;;12.15;46.50;99211.67;105763;1257;61226;-39
2024/01/10 07:04:32;;;;;;;6.50;4.20;;;;;;;12.16;46.41;99215.48;105649;1255;61428;-40
2024/01/10 07:06:59;;;;;;;5.70;4.10;;;;;;;12.17;46.36;99213.08;105657;1251;74560;-40
2024/01/10 07:09:25;;;;;;;5.10;4.30;;;;;;;12.17;46.47;99210.39;105765;1256;64042;-40
2024/01/10 07:11:52;;;;;;;5.10;4.20;;;;;;;12.17;46.50;99209.42;106069;1257;72372;-41
2024/01/10 07:14:19;;;;;;;5.90;4.30;;;;;;;12.17;46.33;99206.52;105673;1256;61222;-39
2024/01/10 07:16:47;;;;;;;7.90;4.30;;;;;;;12.17;46.36;99202.23;106015;1257;61920;-41
2024/01/10 07:19:14;;;;;;;4.80;4.20;;;;;;;12.17;46.47;99201.64;105789;1251;74357;-41
2024/01/10 07:21:41;;;;;;;5.50;4.10;;;;;;;12.18;46.40;99205.86;106418;1255;65981;-41
2024/01/10 07:24:11;;;;;;;6.80;4.30;;;;;;;12.18;46.41;99201.20;105706;1257;72618;-41
2024/01/10 07:26:38;;;;;;;5.00;4.30;;;;;;;12.18;46.45;99202.59;105695;1256;61237;-40
2024/01/10 07:29:08;;;;;;;5.80;4.50;;;;;;;12.18;46.26;99194.05;105742;1251;61574;-39
2024/01/10 07:31:35;;;;;;;4.80;4.30;;;;;;;12.19;46.55;99195.35;106284;1258;75352;-41
2024/01/10 07:34:04;;;;;;;4.50;4.10;;;;;;;12.19;46.42;99197.88;105802;1257;66308;-41
2024/01/10 07:36:33;;;;;;;5.90;4.10;;;;;;;12.19;46.48;99195.94;106271;1256;72448;-41
2024/01/10 07:39:00;;;;;;;4.70;4.20;;;;;;;12.20;46.39;99192.23;105695;1258;61248;-40
2024/01/10 07:41:30;;;;;;;5.00;3.80;;;;;;;12.20;46.29;99192.11;105727;1255;61135;-40
2024/01/10 07:43:59;;;;;;;4.40;4.00;;;;;;;12.20;46.40;99193.69;105852;1262;74621;-40
2024/01/10 07:46:27;;;;;;;4.90;4.00;;;;;;;12.20;46.44;99195.98;105841;1257;65333;-41
2024/01/10 07:48:53;;;;;;;4.40;3.90;;;;;;;12.20;46.37;99196.10;105814;1254;72493;-41
2024/01/10 07:51:20;;;;;;;5.30;4.40;;;;;;;12.21;46.26;99191.73;105763;1264;61228;-41
2024/01/10 07:53:47;;;;;;;5.20;4.50;;;;;;;12.21;46.36;99191.20;105852;1257;61260;-40
2024/01/10 07:56:13;;;;;;;6.30;4.30;;;;;;;12.21;46.37;99195.08;105579;1257;75371;-41
2024/01/10 07:58:40;;;;;;;5.70;4.40;;;;;;;12.21;46.35;99196.84;105666;1256;67028;-41
2024/01/10 08:01:10;;;;;;;5.00;4.40;;;;;;;12.21;46.42;99198.39;105635;1251;73592;-41
2024/01/10 08:03:37;;;;;;;6.40;4.50;;;;;;;12.22;46.36;99198.18;105697;1256;61242;-40
2024/01/10 08:06:03;;;;;;;5.30;4.30;;;;;;;12.22;46.35;99199.09;105741;1254;61324;-41
2024/01/10 08:08:32;;;;;;;5.10;4.00;;;;;;;12.22;46.32;99208.17;105924;1256;75747;-41
2024/01/10 08:10:59;;;;;;;4.90;4.10;;;;;;;12.23;46.34;99209.99;105763;1257;65610;-40
2024/01/10 08:13:26;;;;;;;5.90;4.50;;;;;;;12.22;46.25;99212.78;105679;1255;72298;-41
2024/01/10 08:15:52;;;;;;;5.30;4.40;;;;;;;12.23;46.32;99213.66;105812;1257;61228;-41
2024/01/10 08:18:19;;;;;;;5.30;4.60;;;;;;;12.23;46.24;99214.03;105816;1251;61353;-40
2024/01/10 08:20:46;;;;;;;5.30;4.30;;;;;;;12.24;46.31;99215.97;105644;1256;75700;-40
2024/01/10 08:23:13;;;;;;;5.20;4.20;;;;;;;12.24;46.32;99219.95;105932;1256;65595;-41
2024/01/10 08:25:40;;;;;;;4.70;4.20;;;;;;;12.25;46.42;99220.75;105694;1251;72593;-41
2024/01/10 08:28:09;;;;;;;4.70;4.20;;;;;;;12.25;46.28;99223.31;105782;1251;61319;-41
2024/01/10 08:30:36;;;;;;;5.90;4.40;;;;;;;12.26;46.32;99233.73;105611;1257;61337;-41
2024/01/10 08:33:04;;;;;;;5.80;3.90;;;;;;;12.26;46.32;99233.75;105709;1257;74653;-42
2024/01/10 08:35:31;;;;;;;5.40;4.30;;;;;;;12.27;46.20;99236.16;105930;1262;65921;-40
2024/01/10 08:37:58;;;;;;;5.40;4.10;;;;;;;12.27;46.24;99234.75;105907;1251;72595;-41
2024/01/10 08:40:25;;;;;;;6.60;4.60;;;;;;;12.27;46.22;99235.66;105757;1256;61167;-40
2024/01/10 08:42:52;;;;;;;4.90;4.30;;;;;;;12.28;46.24;99237.65;105751;1257;61322;-40
2024/01/10 08:45:19;;;;;;;4.90;4.10;;;;;;;12.28;46.32;99234.91;105832;1257;74353;-40
2024/01/10 08:47:45;;;;;;;4.50;4.10;;;;;;;12.29;46.33;99237.33;105816;1255;64913;-39
2024/01/10 08:50:12;;;;;;;6.60;4.50;;;;;;;12.30;46.14;99237.34;105887;1255;71601;-39
2024/01/10 08:52:39;;;;;;;4.90;4.30;;;;;;;12.30;46.23;99240.52;105812;1258;61227;-40
2024/01/10 08:55:07;;;;;;;5.50;4.20;;;;;;;12.30;46.26;99243.20;105685;1252;61329;-41
2024/01/10 08:57:39;;;;;;;5.60;4.30;;;;;;;12.31;46.15;99237.89;105710;1251;74274;-41
2024/01/10 09:00:07;;;;;;;4.90;4.40;;;;;;;12.32;46.28;99233.84;105853;1256;66113;-40
2024/01/10 09:02:36;;;;;;;5.20;4.20;;;;;;;12.32;46.15;99235.34;105691;1257;71653;-40
2024/01/10 09:05:04;;;;;;;4.80;4.00;;;;;;;12.33;46.25;99232.39;105659;1264;61237;-40
2024/01/10 09:07:31;;;;;;;5.20;4.30;;;;;;;12.33;46.07;99233.25;105930;1256;61359;-40
2024/01/10 09:09:58;;;;;;;4.60;4.10;;;;;;;12.33;46.22;99229.60;105684;1251;74542;-40
2024/01/10 09:12:24;;;;;;;5.60;4.30;;;;;;;12.34;46.20;99232.55;105637;1251;67330;-40
2024/01/10 09:14:52;;;;;;;4.60;4.10;;;;;;;12.34;46.14;99233.36;105644;1251;72365;-41
2024/01/10 09:17:18;;;;;;;5.60;4.80;;;;;;;12.35;46.21;99233.08;105814;1257;61205;-40
2024/01/10 09:19:45;;;;;;;5.30;4.30;;;;;;;12.36;46.18;99235.66;105704;1251;61260;-38
2024/01/10 09:22:13;;;;;;;5.20;4.40;;;;;;;12.36;46.05;99235.39;105773;1256;75632;-40
2024/01/10 09:24:40;;;;;;;4.80;4.00;;;;;;;12.37;46.11;99234.36;105688;1256;65904;-42
2024/01/10 09:27:09;;;;;;;6.50;4.80;;;;;;;12.37;46.09;99228.40;105727;1257;73516;-41
2024/01/10 09:29:36;;;;;;;6.20;4.20;;;;;;;12.38;46.19;99230.16;105757;1256;61218;-42
2024/01/10 09:32:03;;;;;;;5.00;4.50;;;;;;;12.39;46.12;99227.70;105788;1251;61237;-42
2024/01/10 09:34:32;;;;;;;4.80;4.30;;;;;;;12.40;46.12;99224.95;105800;1257;75594;-42
2024/01/10 09:36:59;;;;;;;5.80;4.40;;;;;;;12.40;46.11;99228.45;105815;1257;65891;-42
2024/01/10 09:39:25;;;;;;;4.60;4.10;;;;;;;12.41;46.10;99226.20;105660;1254;74576;-42
2024/01/10 09:41:52;;;;;;;5.20;4.20;;;;;;;12.42;46.06;99228.70;105790;1255;61141;-42
2024/01/10 09:44:21;;;;;;;6.10;4.20;;;;;;;12.43;46.21;99229.41;105617;1251;61345;-40
2024/01/10 09:46:50;;;;;;;5.70;4.60;;;;;;;12.43;46.16;99227.16;106159;1251;75489;-40
2024/01/10 09:49:17;;;;;;;4.70;4.00;;;;;;;12.44;46.00;99223.76;105746;1251;66955;-40
2024/01/10 09:51:45;;;;;;;4.70;4.20;;;;;;;12.45;45.96;99223.60;106239;1252;72989;-40
2024/01/10 09:54:12;;;;;;;5.10;4.20;;;;;;;12.46;46.13;99217.95;105644;1251;61365;-41
2024/01/10 09:56:38;;;;;;;5.60;4.40;;;;;;;12.47;46.08;99217.90;105601;1249;61326;-41
2024/01/10 09:59:06;;;;;;;4.90;4.10;;;;;;;12.48;46.02;99212.42;106009;1253;75639;-42
2024/01/10 10:01:33;;;;;;;5.90;4.60;;;;;;;12.48;45.97;99209.95;106267;1254;65163;-41
2024/01/10 10:04:00;;;;;;;5.60;4.30;;;;;;;12.49;45.93;99213.55;105824;1255;72384;-42
2024/01/10 10:06:28;;;;;;;5.30;4.50;;;;;;;12.50;46.05;99211.02;105544;1254;61227;-41
2024/01/10 10:08:54;;;;;;;4.40;3.80;;;;;;;12.51;45.97;99211.55;105731;1251;61359;-41
2024/01/10 10:11:21;;;;;;;6.40;4.00;;;;;;;12.52;46.06;99202.47;105886;1258;76735;-41
2024/01/10 10:13:48;;;;;;;4.70;4.10;;;;;;;12.53;45.93;99197.14;105830;1257;66000;-40
2024/01/10 10:16:15;;;;;;;5.40;3.90;;;;;;;12.54;46.12;99196.98;105613;1252;74628;-40
2024/01/10 10:18:42;;;;;;;7.70;4.60;;;;;;;12.55;45.97;99191.91;105478;1258;61337;-40
2024/01/10 10:21:11;;;;;;;5.60;4.20;;;;;;;12.55;45.99;99184.89;105815;1256;61254;-39
2024/01/10 10:23:38;;;;;;;4.90;4.30;;;;;;;12.56;45.89;99180.31;105952;1255;74899;-40
2024/01/10 10:26:19;;;;;;;4.80;4.00;;;;;;;12.56;45.93;99177.14;105651;1257;67077;-41
2024/01/10 10:28:50;;;;;;;7.00;4.60;;;;;;;12.58;45.83;99176.36;105782;1251;72794;-42
2024/01/10 10:31:18;;;;;;;4.90;4.00;;;;;;;12.58;45.86;99170.73;105833;1257;61269;-39
2024/01/10 10:33:45;;;;;;;6.00;4.70;;;;;;;12.59;45.89;99164.33;105801;1251;61216;-40
2024/01/10 10:36:15;;;;;;;5.40;4.10;;;;;;;12.59;45.82;99168.09;105629;1251;75495;-41
2024/01/10 10:38:42;;;;;;;4.90;4.20;;;;;;;12.60;45.73;99160.08;105732;1255;66527;-42
2024/01/10 10:41:11;;;;;;;6.50;4.00;;;;;;;12.60;45.70;99152.39;105712;1251;72443;-42
2024/01/10 10:43:39;;;;;;;5.50;4.50;;;;;;;12.61;45.75;99145.83;105921;1257;61273;-41
2024/01/10 10:46:09;;;;;;;5.70;4.60;;;;;;;12.61;45.85;99136.70;105800;1256;61347;-40
2024/01/10 10:48:36;;;;;;;5.50;4.50;;;;;;;12.61;45.74;99133.10;105895;1257;75554;-40
2024/01/10 10:51:23;;;;;;;6.30;4.10;;;;;;;12.61;45.72;99128.63;105964;1251;67536;-40
2024/01/10 10:53:50;;;;;;;5.90;4.40;;;;;;;12.62;45.80;99131.38;105715;1256;72664;-42
2024/01/10 10:56:17;;;;;;;5.50;4.40;;;;;;;12.62;45.83;99136.86;105661;1256;61324;-41
2024/01/10 10:58:44;;;;;;;6.20;4.30;;;;;;;12.62;45.83;99143.31;105803;1251;61587;-41
2024/01/10 11:01:12;;;;;;;7.80;4.80;;;;;;;12.63;45.79;99140.83;105815;1256;74368;-41
2024/01/10 11:03:40;;;;;;;5.80;4.40;;;;;;;12.63;45.76;99145.27;105815;1256;66522;-40
2024/01/10 11:06:07;;;;;;;5.50;4.30;;;;;;;12.63;45.72;99138.51;105845;1251;72337;-41
2024/01/10 11:09:00;;;;;;;6.10;4.20;;;;;;;12.63;45.75;99138.40;105802;1256;61340;-41
2024/01/10 11:12:03;;;;;;;5.40;4.30;;;;;;;12.63;45.66;99142.54;105628;1256;61257;-40
2024/01/10 11:14:43;;;;;;;5.10;4.20;;;;;;;12.64;45.84;99146.41;105569;1257;75471;-42
2024/01/10 11:17:20;;;;;;;4.80;4.30;;;;;;;12.64;45.84;99145.39;105777;1257;66161;-40
2024/01/10 11:20:05;;;;;;;4.60;3.80;;;;;;;12.64;45.74;99146.73;105613;1251;73762;-41
2024/01/10 11:22:50;;;;;;;6.40;4.50;;;;;;;12.64;45.76;99156.20;105673;1256;61208;-42
2024/01/10 11:25:19;;;;;;;4.80;4.10;;;;;;;12.64;45.72;99153.89;105665;1256;61343;-41